createdAt,value
2019-04-23T00:04:18.115Z,30.02
2019-04-23T00:06:59.414Z,30.08
2019-04-23T00:09:31.238Z,30.08
2019-04-23T00:11:59.950Z,29.99
2019-04-23T00:14:40.899Z,29.99
2019-04-23T00:17:17.806Z,29.79
2019-04-23T00:19:39.731Z,29.94
2019-04-23T00:22:37.020Z,29.94
2019-04-23T00:27:50.337Z,29.81
2019-04-23T00:30:20.289Z,29.90
2019-04-23T00:32:51.754Z,29.90
2019-04-23T00:35:25.757Z,29.87
2019-04-23T00:37:55.158Z,29.86
2019-04-23T00:40:35.719Z,29.83
2019-04-23T00:43:11.897Z,29.94
2019-04-23T00:48:22.280Z,30.01
2019-04-23T00:50:52.829Z,30.09
2019-04-23T00:56:03.149Z,29.98
2019-04-23T00:58:32.408Z,30.01
2019-04-23T01:01:04.127Z,30.14
2019-04-23T01:03:26.289Z,31.39
2019-04-23T01:06:07.805Z,31.39
2019-04-23T01:08:45.751Z,31.35
2019-04-23T01:11:16.616Z,31.14
2019-04-23T01:13:48.947Z,31.32
2019-04-23T01:16:21.287Z,31.46
2019-04-23T01:19:24.829Z,31.46
2019-04-23T01:21:45.228Z,31.62
2019-04-23T01:24:38.480Z,31.72
2019-04-23T01:27:55.846Z,31.72
2019-04-23T01:30:18.020Z,31.82
2019-04-23T01:32:48.482Z,31.82
2019-04-23T01:35:20.370Z,31.87
2019-04-23T01:37:56.166Z,32.09
2019-04-23T01:40:34.778Z,32.08
2019-04-23T01:43:05.557Z,32.15
2019-04-23T01:45:30.744Z,32.18
2019-04-23T01:48:05.027Z,32.32
2019-04-23T01:50:52.109Z,32.32
2019-04-23T01:53:22.625Z,32.53
2019-04-23T01:55:54.440Z,32.67
2019-04-23T02:01:00.744Z,33.04
2019-04-23T02:03:38.488Z,33.12
2019-04-23T02:06:08.695Z,33.17
2019-04-23T02:08:43.497Z,33.17
2019-04-23T02:14:05.439Z,33.58
2019-04-23T02:16:24.634Z,33.75
2019-04-23T02:18:56.779Z,33.75
2019-04-23T02:21:33.417Z,33.69
2019-04-23T02:24:09.157Z,33.29
2019-04-23T02:26:36.807Z,33.29
2019-04-23T02:29:28.600Z,33.65
2019-04-23T02:34:51.920Z,34.26
2019-04-23T02:37:22.749Z,34.26
2019-04-23T02:39:40.167Z,34.46
2019-04-23T02:44:38.833Z,34.46
2019-04-23T02:47:21.848Z,34.60
2019-04-23T02:49:55.329Z,34.60
2019-04-23T02:52:21.695Z,34.80
2019-04-23T02:54:58.644Z,35.13
2019-04-23T02:57:35.590Z,35.11
2019-04-23T03:02:43.600Z,35.27
2019-04-23T03:05:11.684Z,35.19
2019-04-23T03:21:25.441Z,35.58
2019-04-23T03:24:21.128Z,35.68
2019-04-23T03:29:31.416Z,35.78
2019-04-23T03:32:45.922Z,35.80
2019-04-23T03:42:17.136Z,36.06
2019-04-23T03:47:24.788Z,35.66
2019-04-23T03:55:23.169Z,35.77
2019-04-23T03:57:30.982Z,36.00
2019-04-23T04:00:15.663Z,36.01
2019-04-23T04:05:22.677Z,36.23
2019-04-23T04:10:26.613Z,36.43
2019-04-23T04:12:57.638Z,36.43
2019-04-23T04:18:28.491Z,36.48
2019-04-23T04:21:01.171Z,36.33
2019-04-23T04:33:41.383Z,36.92
2019-04-23T04:36:18.097Z,36.88
2019-04-23T04:38:40.195Z,36.88
2019-04-23T04:57:00.654Z,37.07
2019-04-23T04:59:08.755Z,37.15
2019-04-23T05:01:37.760Z,37.15
2019-04-23T05:04:20.200Z,37.13
2019-04-23T05:06:56.662Z,37.13
2019-04-23T05:09:21.316Z,37.31
2019-04-23T05:17:13.375Z,37.30
2019-04-23T05:22:12.196Z,37.34
2019-04-23T05:24:43.249Z,37.30
2019-04-23T05:27:15.530Z,37.30
2019-04-23T05:29:54.296Z,37.31
2019-04-23T05:32:19.452Z,37.38
2019-04-23T05:35:00.597Z,37.38
2019-04-23T05:37:37.133Z,37.33
2019-04-23T05:40:12.661Z,37.33
2019-04-23T05:42:33.143Z,37.79
2019-04-23T05:45:14.395Z,37.68
2019-04-23T05:47:48.192Z,37.75
2019-04-23T05:50:18.863Z,38.14
2019-04-23T05:53:10.172Z,38.14
2019-04-23T05:55:20.351Z,38.32
2019-04-23T05:57:53.635Z,38.32
2019-04-23T06:00:34.786Z,38.05
2019-04-23T06:03:04.761Z,38.14
2019-04-23T06:05:38.761Z,38.14
2019-04-23T06:08:12.086Z,38.05
2019-04-23T06:10:55.840Z,38.17
2019-04-23T06:13:41.049Z,38.17
2019-04-23T06:16:08.416Z,38.19
2019-04-23T06:18:38.093Z,38.06
2019-04-23T06:21:12.916Z,38.23
2019-04-23T06:23:50.214Z,38.33
2019-04-23T06:29:08.899Z,38.25
2019-04-23T06:31:41.527Z,38.21
2019-04-23T06:34:17.151Z,38.28
2019-04-23T06:36:46.303Z,38.44
2019-04-23T06:39:15.887Z,38.44
2019-04-23T06:41:50.125Z,38.54
2019-04-23T06:47:16.735Z,34.59
2019-04-23T06:55:01.191Z,37.85
2019-04-23T06:57:41.122Z,38.40
2019-04-23T07:00:08.015Z,38.40
2019-04-23T07:02:59.769Z,38.02
2019-04-23T07:05:55.139Z,37.78
2019-04-23T07:08:32.488Z,37.78
2019-04-23T07:11:11.499Z,38.12
2019-04-23T07:13:54.725Z,38.12
2019-04-23T07:16:14.635Z,38.39
2019-04-23T07:21:25.137Z,38.21
2019-04-23T07:29:09.040Z,38.61
2019-04-23T07:31:40.963Z,38.64
2019-04-23T07:34:15.776Z,38.64
2019-04-23T07:36:48.376Z,38.87
2019-04-23T07:39:58.885Z,38.72
2019-04-23T07:42:44.610Z,38.38
2019-04-23T07:45:29.630Z,38.94
2019-04-23T07:48:24.229Z,38.98
2019-04-23T07:51:03.335Z,38.84
2019-04-23T07:53:41.241Z,38.84
2019-04-23T07:56:13.126Z,38.94
2019-04-23T07:58:54.374Z,39.08
2019-04-23T08:01:27.071Z,39.00
2019-04-23T08:04:18.245Z,39.00
2019-04-23T08:06:52.407Z,38.99
2019-04-23T08:09:24.629Z,38.96
2019-04-23T08:11:56.796Z,38.77
2019-04-23T08:14:34.355Z,38.98
2019-04-23T08:17:09.061Z,38.99
2019-04-23T08:19:49.383Z,38.99
2019-04-23T08:22:22.214Z,38.75
2019-04-23T08:25:12.853Z,38.98
2019-04-23T08:27:34.482Z,38.41
2019-04-23T08:30:06.219Z,38.75
2019-04-23T08:32:47.600Z,38.75
2019-04-23T08:35:15.998Z,38.89
2019-04-23T08:38:04.602Z,38.99
2019-04-23T08:40:52.769Z,38.98
2019-04-23T08:43:05.595Z,38.80
2019-04-23T08:45:52.978Z,38.84
2019-04-23T08:48:27.809Z,38.96
2019-04-23T08:51:19.411Z,38.97
2019-04-23T08:53:40.667Z,38.97
2019-04-23T08:56:08.722Z,39.12
2019-04-23T08:58:46.331Z,39.11
2019-04-23T09:01:16.938Z,39.25
2019-04-23T09:03:55.986Z,39.23
2019-04-23T09:06:27.634Z,39.48
2019-04-23T09:09:09.011Z,39.48
2019-04-23T09:11:45.990Z,39.22
2019-04-23T09:14:04.588Z,39.22
2019-04-23T09:19:23.225Z,38.74
2019-04-23T09:22:02.003Z,38.81
2019-04-23T09:24:32.683Z,38.81
2019-04-23T09:27:23.432Z,39.13
2019-04-23T09:38:08.297Z,39.04
2019-04-23T09:41:13.064Z,39.12
2019-04-23T09:44:07.868Z,39.12
2019-04-23T09:47:00.692Z,39.02
2019-04-23T09:52:09.539Z,38.47
2019-04-23T09:54:47.715Z,38.40
2019-04-23T09:57:15.955Z,38.40
2019-04-23T09:59:48.864Z,38.50
2019-04-23T10:02:19.514Z,38.50
2019-04-23T10:04:48.610Z,38.76
2019-04-23T10:07:23.859Z,38.96
2019-04-23T10:09:42.506Z,38.96
2019-04-23T10:12:17.756Z,38.98
2019-04-23T10:14:59.220Z,39.03
2019-04-23T10:17:29.987Z,38.95
2019-04-23T10:20:04.694Z,38.55
2019-04-23T10:22:39.571Z,38.57
2019-04-23T10:25:13.221Z,38.57
2019-04-23T10:27:45.369Z,38.76
2019-04-23T10:30:19.671Z,38.79
2019-04-23T10:32:51.671Z,38.88
2019-04-23T10:35:35.036Z,38.88
2019-04-23T10:38:03.869Z,38.96
2019-04-23T10:40:38.182Z,39.13
2019-04-23T10:43:09.256Z,39.00
2019-04-23T10:46:31.133Z,39.00
2019-04-23T10:49:52.192Z,38.89
2019-04-23T10:57:06.158Z,38.95
2019-04-23T11:10:15.879Z,39.03
2019-04-23T11:17:58.300Z,38.94
2019-04-23T11:20:41.576Z,38.84
2019-04-23T11:23:04.849Z,38.73
2019-04-23T11:25:44.048Z,38.75
2019-04-23T11:36:57.992Z,38.87
2019-04-23T11:39:21.708Z,38.77
2019-04-23T11:42:12.279Z,38.58
2019-04-23T11:44:36.710Z,38.67
2019-04-23T11:47:29.024Z,38.33
2019-04-23T11:54:45.308Z,38.75
2019-04-23T11:59:55.636Z,38.74
2019-04-23T12:02:56.200Z,38.75
2019-04-23T12:06:17.294Z,38.75
2019-04-23T12:09:09.838Z,38.68
2019-04-23T12:14:40.536Z,38.60
2019-04-23T12:20:13.525Z,38.40
2019-04-23T12:22:43.526Z,38.50
2019-04-23T12:25:29.743Z,38.42
2019-04-23T12:27:51.714Z,38.36
2019-04-23T12:30:42.009Z,38.36
2019-04-23T12:33:10.691Z,38.55
2019-04-23T12:35:39.008Z,38.47
2019-04-23T12:38:26.981Z,38.47
2019-04-23T12:41:14.006Z,38.51
2019-04-23T12:43:40.607Z,38.46
2019-04-23T12:46:16.233Z,38.46
2019-04-23T12:49:28.348Z,38.47
2019-04-23T12:51:45.209Z,38.36
2019-04-23T12:54:37.998Z,38.29
2019-04-23T12:57:05.162Z,38.06
2019-04-23T13:02:32.800Z,37.85
2019-04-23T13:07:38.085Z,37.67
2019-04-23T13:12:52.894Z,37.53
2019-04-23T13:18:03.117Z,37.33
2019-04-23T13:20:33.629Z,37.21
2019-04-23T13:28:21.706Z,37.03
2019-04-23T13:31:00.739Z,36.97
2019-04-23T13:41:23.126Z,36.85
2019-04-23T13:43:42.577Z,36.82
2019-04-23T13:46:17.263Z,36.82
2019-04-23T13:48:47.039Z,36.71
2019-04-23T13:51:25.753Z,36.71
2019-04-23T13:54:08.190Z,36.64
2019-04-23T13:57:05.860Z,36.64
2019-04-23T13:59:26.349Z,36.54
2019-04-23T14:01:42.939Z,36.45
2019-04-23T14:04:38.666Z,36.45
2019-04-23T14:09:45.997Z,36.48
2019-04-23T14:12:18.211Z,36.48
2019-04-23T14:14:56.309Z,36.50
2019-04-23T14:20:07.147Z,36.48
2019-04-23T14:25:11.415Z,36.42
2019-04-23T14:28:00.176Z,36.47
2019-04-23T14:32:54.122Z,36.36
2019-04-23T14:38:19.953Z,36.37
2019-04-23T14:40:42.974Z,36.32
2019-04-23T14:46:14.623Z,36.28
2019-04-23T14:48:20.617Z,36.34
2019-04-23T14:50:48.803Z,36.28
2019-04-23T14:53:40.630Z,36.28
2019-04-23T15:06:35.811Z,36.25
2019-04-23T15:11:45.148Z,36.31
2019-04-23T15:14:11.871Z,36.30
2019-04-23T15:16:49.791Z,36.14
2019-04-23T15:19:40.154Z,36.15
2019-04-23T15:22:12.071Z,36.14
2019-04-23T15:24:30.614Z,36.08
2019-04-23T15:29:27.566Z,36.03
2019-04-23T15:34:52.098Z,35.84
2019-04-23T15:37:33.245Z,35.84
2019-04-23T15:39:55.092Z,35.80
2019-04-23T15:42:25.403Z,35.81
2019-04-23T15:45:00.954Z,35.74
2019-04-23T15:47:31.861Z,35.74
2019-04-23T15:50:10.050Z,35.77
2019-04-23T15:52:47.267Z,35.73
2019-04-23T15:55:12.252Z,35.69
2019-04-23T16:00:17.854Z,35.70
2019-04-23T16:02:27.073Z,35.74
2019-04-23T16:05:00.038Z,35.74
2019-04-23T16:07:51.907Z,35.68
2019-04-23T16:10:28.784Z,35.68
2019-04-23T16:13:32.427Z,35.57
2019-04-23T16:15:46.690Z,35.58
2019-04-23T16:18:45.388Z,35.58
2019-04-23T16:21:10.523Z,35.46
2019-04-23T16:23:37.510Z,35.46
2019-04-23T16:26:14.715Z,35.41
2019-04-23T16:31:34.775Z,35.43
2019-04-23T16:34:27.327Z,35.36
2019-04-23T16:37:06.118Z,35.43
2019-04-23T16:39:49.330Z,35.43
2019-04-23T16:42:08.800Z,35.43
2019-04-23T16:44:59.696Z,35.47
2019-04-23T16:47:21.883Z,35.44
2019-04-23T16:50:04.740Z,35.23
2019-04-23T16:52:26.406Z,35.16
2019-04-23T16:55:13.788Z,34.97
2019-04-23T17:02:48.024Z,35.11
2019-04-23T17:05:19.701Z,35.11
2019-04-23T17:08:08.387Z,35.03
2019-04-23T17:15:40.438Z,34.98
2019-04-23T17:18:18.369Z,34.90
2019-04-23T17:20:52.982Z,34.86
2019-04-23T17:28:29.093Z,34.83
2019-04-23T17:31:26.302Z,34.83
2019-04-23T17:36:38.520Z,34.77
2019-04-23T17:39:18.185Z,34.77
2019-04-23T17:42:12.783Z,34.64
2019-04-23T17:47:35.564Z,34.72
2019-04-23T17:50:20.211Z,34.72
2019-04-23T17:52:42.051Z,34.75
2019-04-23T17:57:55.924Z,34.64
2019-04-23T18:00:33.570Z,34.56
2019-04-23T18:02:59.695Z,34.65
2019-04-23T18:05:40.316Z,34.65
2019-04-23T18:10:37.054Z,34.42
2019-04-23T18:13:13.326Z,34.32
2019-04-23T18:15:46.137Z,34.30
2019-04-23T18:18:23.574Z,34.32
2019-04-23T18:23:41.289Z,34.23
2019-04-23T18:26:14.195Z,34.16
2019-04-23T18:28:58.288Z,34.16
2019-04-23T18:31:44.606Z,34.14
2019-04-23T18:34:26.528Z,33.96
2019-04-23T18:36:38.783Z,34.05
2019-04-23T18:39:26.243Z,34.07
2019-04-23T18:42:04.004Z,34.04
2019-04-23T18:44:35.020Z,33.93
2019-04-23T18:47:00.486Z,33.93
2019-04-23T18:52:14.604Z,34.03
2019-04-23T18:54:40.497Z,33.91
2019-04-23T18:57:13.037Z,33.91
2019-04-23T19:00:03.337Z,33.98
2019-04-23T19:03:11.544Z,33.98
2019-04-23T19:06:10.533Z,33.84
2019-04-23T19:09:00.595Z,33.64
2019-04-23T19:11:35.658Z,33.66
2019-04-23T19:14:03.184Z,33.93
2019-04-23T19:16:53.447Z,33.93
2019-04-23T19:19:20.404Z,33.73
2019-04-23T19:24:28.389Z,33.53
2019-04-23T19:28:09.204Z,33.53
2019-04-23T19:33:41.913Z,33.51
2019-04-23T19:36:13.807Z,33.51
2019-04-23T19:41:47.555Z,33.31
2019-04-23T19:43:56.236Z,33.29
2019-04-23T19:46:36.936Z,33.50
2019-04-23T19:49:07.211Z,33.21
2019-04-23T19:51:39.770Z,33.21
2019-04-23T19:56:47.256Z,33.22
2019-04-23T19:59:15.427Z,33.05
2019-04-23T20:01:49.744Z,32.94
2019-04-23T20:04:23.446Z,33.16
2019-04-23T20:09:47.884Z,33.13
2019-04-23T20:14:42.158Z,32.82
2019-04-23T20:17:34.097Z,33.08
2019-04-23T20:19:48.564Z,32.82
2019-04-23T20:22:33.961Z,32.77
2019-04-23T20:25:20.926Z,32.98
2019-04-23T20:27:39.237Z,33.05
2019-04-23T20:36:10.589Z,32.79
2019-04-23T20:41:21.421Z,32.68
2019-04-23T20:43:57.640Z,32.75
2019-04-23T20:46:24.876Z,32.56
2019-04-23T20:51:36.351Z,32.66
2019-04-23T20:56:42.482Z,32.58
2019-04-23T20:59:12.300Z,32.56
2019-04-23T21:02:15.279Z,32.56
2019-04-23T21:04:47.479Z,32.60
2019-04-23T21:07:17.602Z,32.57
2019-04-23T21:10:01.048Z,32.49
2019-04-23T21:12:42.485Z,32.56
2019-04-23T21:15:05.329Z,32.29
2019-04-23T21:17:35.665Z,32.29
2019-04-23T21:22:39.559Z,32.52
2019-04-23T21:25:09.448Z,32.24
2019-04-23T21:27:55.348Z,32.04
2019-04-23T21:31:02.194Z,32.04
2019-04-23T21:33:24.561Z,32.00
2019-04-23T21:36:22.366Z,32.31
2019-04-23T21:39:23.080Z,32.44
2019-04-23T21:41:58.032Z,32.37
2019-04-23T21:47:07.750Z,32.14
2019-04-23T21:49:47.711Z,32.29
2019-04-23T21:54:47.154Z,32.22
2019-04-23T21:57:16.897Z,32.10
2019-04-23T21:59:55.664Z,31.98
2019-04-23T22:02:27.709Z,31.91
2019-04-23T22:05:19.442Z,32.00
2019-04-23T22:07:41.998Z,31.95
2019-04-23T22:10:02.712Z,31.78
2019-04-23T22:12:46.944Z,31.78
2019-04-23T22:15:13.303Z,31.81
2019-04-23T22:17:46.283Z,31.85
2019-04-23T22:25:39.250Z,31.95
2019-04-23T22:28:00.745Z,32.00
2019-04-23T22:30:38.612Z,31.80
2019-04-23T22:33:09.856Z,31.80
2019-04-23T22:35:48.314Z,31.80
2019-04-23T22:38:20.759Z,31.94
2019-04-23T22:40:58.170Z,31.52
2019-04-23T22:43:38.165Z,31.52
2019-04-23T22:48:46.154Z,31.52
2019-04-23T22:51:21.076Z,31.52
2019-04-23T22:53:53.211Z,31.46
2019-04-23T22:56:44.269Z,31.46
2019-04-23T22:59:18.606Z,31.64
2019-04-23T23:01:43.138Z,31.51
2019-04-23T23:09:34.257Z,31.40
2019-04-23T23:14:27.937Z,31.37
2019-04-23T23:17:02.249Z,31.21
2019-04-23T23:22:44.605Z,31.30
2019-04-23T23:24:56.446Z,31.39
2019-04-23T23:27:54.322Z,31.31
2019-04-23T23:30:26.697Z,31.45
2019-04-23T23:35:28.416Z,31.61
2019-04-23T23:38:08.305Z,31.62
2019-04-23T23:40:47.591Z,31.56
2019-04-23T23:43:23.386Z,31.49
2019-04-23T23:51:01.544Z,31.24
2019-04-23T23:53:34.548Z,31.33
2019-04-23T23:58:40.750Z,31.28
